sensor_id;sensor_type;location;lat;lon;timestamp;P1;durP1;ratioP1;P2;durP2;ratioP2
4486;SDS011;2256;48.740;9.106;2023-04-16T00:01:34;25.35;;;11.88;;
4486;SDS011;2256;48.740;9.106;2023-04-16T00:04:02;22.92;;;12.45;;
4486;SDS011;2256;48.740;9.106;2023-04-16T00:06:29;24.92;;;12.15;;
4486;SDS011;2256;48.740;9.106;2023-04-16T00:08:57;24.65;;;13.10;;
4486;SDS011;2256;48.740;9.106;2023-04-16T00:11:24;25.35;;;13.35;;
4486;SDS011;2256;48.740;9.106;2023-04-16T00:13:51;21.23;;;11.95;;
4486;SDS011;2256;48.740;9.106;2023-04-16T00:16:18;24.27;;;12.07;;
4486;SDS011;2256;48.740;9.106;2023-04-16T00:18:45;19.83;;;11.25;;
4486;SDS011;2256;48.740;9.106;2023-04-16T00:21:11;20.17;;;10.90;;
4486;SDS011;2256;48.740;9.106;2023-04-16T00:23:38;25.73;;;12.90;;
4486;SDS011;2256;48.740;9.106;2023-04-16T00:26:07;22.58;;;11.65;;
4486;SDS011;2256;48.740;9.106;2023-04-16T00:28:34;20.23;;;11.95;;
4486;SDS011;2256;48.740;9.106;2023-04-16T00:31:01;23.08;;;12.20;;
4486;SDS011;2256;48.740;9.106;2023-04-16T00:33:28;23.20;;;12.35;;
4486;SDS011;2256;48.740;9.106;2023-04-16T00:35:55;23.60;;;10.93;;
4486;SDS011;2256;48.740;9.106;2023-04-16T00:38:21;25.83;;;13.05;;
4486;SDS011;2256;48.740;9.106;2023-04-16T00:40:48;24.00;;;11.97;;
4486;SDS011;2256;48.740;9.106;2023-04-16T00:43:20;28.27;;;13.55;;
4486;SDS011;2256;48.740;9.106;2023-04-16T00:45:49;25.08;;;13.50;;
4486;SDS011;2256;48.740;9.106;2023-04-16T00:48:16;20.80;;;12.32;;
4486;SDS011;2256;48.740;9.106;2023-04-16T00:50:43;31.90;;;12.00;;
4486;SDS011;2256;48.740;9.106;2023-04-16T00:53:10;23.02;;;11.18;;
4486;SDS011;2256;48.740;9.106;2023-04-16T00:55:37;23.13;;;11.43;;
4486;SDS011;2256;48.740;9.106;2023-04-16T00:58:06;18.98;;;10.32;;
4486;SDS011;2256;48.740;9.106;2023-04-16T01:00:34;25.08;;;10.85;;
4486;SDS011;2256;48.740;9.106;2023-04-16T01:03:00;23.65;;;12.52;;
4486;SDS011;2256;48.740;9.106;2023-04-16T01:05:27;17.30;;;10.48;;
4486;SDS011;2256;48.740;9.106;2023-04-16T01:07:57;23.75;;;11.52;;
4486;SDS011;2256;48.740;9.106;2023-04-16T01:10:23;22.60;;;11.70;;
4486;SDS011;2256;48.740;9.106;2023-04-16T01:12:50;22.55;;;11.45;;
4486;SDS011;2256;48.740;9.106;2023-04-16T01:15:17;22.75;;;11.77;;
4486;SDS011;2256;48.740;9.106;2023-04-16T01:17:45;20.85;;;10.55;;
4486;SDS011;2256;48.740;9.106;2023-04-16T01:20:12;18.38;;;11.38;;
4486;SDS011;2256;48.740;9.106;2023-04-16T01:22:41;18.00;;;10.98;;
4486;SDS011;2256;48.740;9.106;2023-04-16T01:25:07;20.65;;;11.00;;
4486;SDS011;2256;48.740;9.106;2023-04-16T01:27:38;24.02;;;11.02;;
4486;SDS011;2256;48.740;9.106;2023-04-16T01:30:06;21.85;;;11.30;;
4486;SDS011;2256;48.740;9.106;2023-04-16T01:32:33;18.75;;;10.98;;
4486;SDS011;2256;48.740;9.106;2023-04-16T01:35:00;21.40;;;11.10;;
4486;SDS011;2256;48.740;9.106;2023-04-16T01:37:26;19.63;;;10.23;;
4486;SDS011;2256;48.740;9.106;2023-04-16T01:39:55;18.35;;;10.30;;
4486;SDS011;2256;48.740;9.106;2023-04-16T01:42:22;21.58;;;11.10;;
4486;SDS011;2256;48.740;9.106;2023-04-16T01:44:48;18.50;;;8.90;;
4486;SDS011;2256;48.740;9.106;2023-04-16T01:47:15;19.20;;;10.80;;
4486;SDS011;2256;48.740;9.106;2023-04-16T01:49:42;18.17;;;9.23;;
4486;SDS011;2256;48.740;9.106;2023-04-16T01:52:09;18.60;;;10.00;;
4486;SDS011;2256;48.740;9.106;2023-04-16T01:54:36;15.43;;;8.48;;
4486;SDS011;2256;48.740;9.106;2023-04-16T01:57:04;18.83;;;9.63;;
4486;SDS011;2256;48.740;9.106;2023-04-16T01:59:31;20.10;;;8.60;;
4486;SDS011;2256;48.740;9.106;2023-04-16T02:01:58;17.60;;;9.43;;
4486;SDS011;2256;48.740;9.106;2023-04-16T02:04:27;17.93;;;9.20;;
4486;SDS011;2256;48.740;9.106;2023-04-16T02:06:56;14.27;;;8.15;;
4486;SDS011;2256;48.740;9.106;2023-04-16T02:09:23;14.48;;;9.35;;
4486;SDS011;2256;48.740;9.106;2023-04-16T02:11:50;13.23;;;7.93;;
4486;SDS011;2256;48.740;9.106;2023-04-16T02:14:18;15.40;;;8.80;;
4486;SDS011;2256;48.740;9.106;2023-04-16T02:16:46;18.30;;;9.30;;
4486;SDS011;2256;48.740;9.106;2023-04-16T02:19:13;20.33;;;8.60;;
4486;SDS011;2256;48.740;9.106;2023-04-16T02:21:40;17.30;;;8.50;;
4486;SDS011;2256;48.740;9.106;2023-04-16T02:24:07;18.80;;;8.85;;
4486;SDS011;2256;48.740;9.106;2023-04-16T02:26:34;15.73;;;8.90;;
4486;SDS011;2256;48.740;9.106;2023-04-16T02:29:00;17.08;;;8.50;;
4486;SDS011;2256;48.740;9.106;2023-04-16T02:31:29;13.40;;;7.95;;
4486;SDS011;2256;48.740;9.106;2023-04-16T02:33:55;16.30;;;8.00;;
4486;SDS011;2256;48.740;9.106;2023-04-16T02:36:22;14.50;;;7.70;;
4486;SDS011;2256;48.740;9.106;2023-04-16T02:38:49;18.25;;;8.80;;
4486;SDS011;2256;48.740;9.106;2023-04-16T02:41:16;19.33;;;8.60;;
4486;SDS011;2256;48.740;9.106;2023-04-16T02:43:43;17.90;;;8.40;;
4486;SDS011;2256;48.740;9.106;2023-04-16T02:46:10;14.98;;;8.60;;
4486;SDS011;2256;48.740;9.106;2023-04-16T02:48:38;16.27;;;8.20;;
4486;SDS011;2256;48.740;9.106;2023-04-16T02:51:05;18.67;;;8.48;;
4486;SDS011;2256;48.740;9.106;2023-04-16T02:53:31;14.90;;;8.27;;
4486;SDS011;2256;48.740;9.106;2023-04-16T02:55:58;17.92;;;8.73;;
4486;SDS011;2256;48.740;9.106;2023-04-16T02:58:25;14.77;;;7.88;;
4486;SDS011;2256;48.740;9.106;2023-04-16T03:00:52;15.57;;;8.85;;
4486;SDS011;2256;48.740;9.106;2023-04-16T03:03:19;18.15;;;9.10;;
4486;SDS011;2256;48.740;9.106;2023-04-16T03:05:48;14.60;;;7.53;;
4486;SDS011;2256;48.740;9.106;2023-04-16T03:08:15;18.10;;;8.60;;
4486;SDS011;2256;48.740;9.106;2023-04-16T03:10:41;17.15;;;8.70;;
4486;SDS011;2256;48.740;9.106;2023-04-16T03:13:08;19.30;;;9.50;;
4486;SDS011;2256;48.740;9.106;2023-04-16T03:15:35;17.15;;;8.63;;
4486;SDS011;2256;48.740;9.106;2023-04-16T03:18:02;18.15;;;9.18;;
4486;SDS011;2256;48.740;9.106;2023-04-16T03:20:29;16.25;;;8.55;;
4486;SDS011;2256;48.740;9.106;2023-04-16T03:22:57;16.17;;;9.15;;
4486;SDS011;2256;48.740;9.106;2023-04-16T03:25:24;20.85;;;10.13;;
4486;SDS011;2256;48.740;9.106;2023-04-16T03:27:51;22.88;;;10.88;;
4486;SDS011;2256;48.740;9.106;2023-04-16T03:30:18;22.35;;;10.70;;
4486;SDS011;2256;48.740;9.106;2023-04-16T03:32:45;26.45;;;11.50;;
4486;SDS011;2256;48.740;9.106;2023-04-16T03:35:12;22.40;;;11.32;;
4486;SDS011;2256;48.740;9.106;2023-04-16T03:37:38;25.50;;;11.00;;
4486;SDS011;2256;48.740;9.106;2023-04-16T03:40:07;19.45;;;9.48;;
4486;SDS011;2256;48.740;9.106;2023-04-16T03:42:35;20.83;;;9.70;;
4486;SDS011;2256;48.740;9.106;2023-04-16T03:45:01;19.42;;;9.77;;
4486;SDS011;2256;48.740;9.106;2023-04-16T03:47:28;20.13;;;10.55;;
4486;SDS011;2256;48.740;9.106;2023-04-16T03:49:55;22.88;;;9.95;;
4486;SDS011;2256;48.740;9.106;2023-04-16T03:52:22;18.73;;;9.55;;
4486;SDS011;2256;48.740;9.106;2023-04-16T03:54:49;22.23;;;9.25;;
4486;SDS011;2256;48.740;9.106;2023-04-16T03:57:17;22.58;;;9.68;;
4486;SDS011;2256;48.740;9.106;2023-04-16T03:59:44;18.63;;;9.05;;
4486;SDS011;2256;48.740;9.106;2023-04-16T04:02:10;22.23;;;9.48;;
4486;SDS011;2256;48.740;9.106;2023-04-16T04:04:37;25.75;;;10.73;;
4486;SDS011;2256;48.740;9.106;2023-04-16T04:07:04;23.48;;;8.82;;
4486;SDS011;2256;48.740;9.106;2023-04-16T04:09:31;26.05;;;10.85;;
4486;SDS011;2256;48.740;9.106;2023-04-16T04:11:58;20.75;;;10.90;;
4486;SDS011;2256;48.740;9.106;2023-04-16T04:14:26;20.92;;;10.95;;
4486;SDS011;2256;48.740;9.106;2023-04-16T04:16:53;18.50;;;9.10;;
4486;SDS011;2256;48.740;9.106;2023-04-16T04:19:19;24.67;;;11.02;;
4486;SDS011;2256;48.740;9.106;2023-04-16T04:21:46;19.83;;;9.52;;
4486;SDS011;2256;48.740;9.106;2023-04-16T04:24:13;19.05;;;9.18;;
4486;SDS011;2256;48.740;9.106;2023-04-16T04:26:40;20.88;;;10.10;;
4486;SDS011;2256;48.740;9.106;2023-04-16T04:29:06;21.63;;;10.77;;
4486;SDS011;2256;48.740;9.106;2023-04-16T04:31:34;19.45;;;9.40;;
4486;SDS011;2256;48.740;9.106;2023-04-16T04:34:01;23.05;;;9.80;;
4486;SDS011;2256;48.740;9.106;2023-04-16T04:36:28;25.90;;;10.35;;
4486;SDS011;2256;48.740;9.106;2023-04-16T04:38:55;21.48;;;9.73;;
4486;SDS011;2256;48.740;9.106;2023-04-16T04:41:21;19.25;;;9.30;;
4486;SDS011;2256;48.740;9.106;2023-04-16T04:43:50;21.65;;;9.50;;
4486;SDS011;2256;48.740;9.106;2023-04-16T04:46:17;20.27;;;8.88;;
4486;SDS011;2256;48.740;9.106;2023-04-16T04:48:46;21.95;;;10.15;;
4486;SDS011;2256;48.740;9.106;2023-04-16T04:51:13;23.90;;;10.20;;
4486;SDS011;2256;48.740;9.106;2023-04-16T04:53:40;22.15;;;9.93;;
4486;SDS011;2256;48.740;9.106;2023-04-16T04:56:07;25.23;;;10.60;;
4486;SDS011;2256;48.740;9.106;2023-04-16T04:58:34;21.75;;;9.20;;
4486;SDS011;2256;48.740;9.106;2023-04-16T05:01:00;22.55;;;9.88;;
4486;SDS011;2256;48.740;9.106;2023-04-16T05:03:27;21.90;;;9.82;;
4486;SDS011;2256;48.740;9.106;2023-04-16T05:05:55;22.90;;;10.10;;
4486;SDS011;2256;48.740;9.106;2023-04-16T05:08:22;18.38;;;8.60;;
4486;SDS011;2256;48.740;9.106;2023-04-16T05:10:49;25.13;;;10.07;;
4486;SDS011;2256;48.740;9.106;2023-04-16T05:13:16;23.38;;;10.38;;
4486;SDS011;2256;48.740;9.106;2023-04-16T05:15:42;23.15;;;11.55;;
4486;SDS011;2256;48.740;9.106;2023-04-16T05:18:10;20.58;;;9.43;;
4486;SDS011;2256;48.740;9.106;2023-04-16T05:20:36;23.15;;;10.35;;
4486;SDS011;2256;48.740;9.106;2023-04-16T05:23:04;22.40;;;10.13;;
4486;SDS011;2256;48.740;9.106;2023-04-16T05:25:31;21.52;;;10.00;;
4486;SDS011;2256;48.740;9.106;2023-04-16T05:27:58;22.20;;;9.95;;
4486;SDS011;2256;48.740;9.106;2023-04-16T05:30:25;30.27;;;12.70;;
4486;SDS011;2256;48.740;9.106;2023-04-16T05:32:51;29.65;;;13.18;;
4486;SDS011;2256;48.740;9.106;2023-04-16T05:35:18;34.92;;;14.57;;
4486;SDS011;2256;48.740;9.106;2023-04-16T05:37:45;27.45;;;12.93;;
4486;SDS011;2256;48.740;9.106;2023-04-16T05:40:14;39.13;;;14.73;;
4486;SDS011;2256;48.740;9.106;2023-04-16T05:42:41;41.75;;;16.17;;
4486;SDS011;2256;48.740;9.106;2023-04-16T05:45:08;44.83;;;18.15;;
4486;SDS011;2256;48.740;9.106;2023-04-16T05:47:35;39.28;;;16.65;;
4486;SDS011;2256;48.740;9.106;2023-04-16T05:50:02;43.83;;;15.93;;
4486;SDS011;2256;48.740;9.106;2023-04-16T05:52:29;56.57;;;20.20;;
4486;SDS011;2256;48.740;9.106;2023-04-16T05:54:56;54.60;;;20.17;;
4486;SDS011;2256;48.740;9.106;2023-04-16T05:57:26;68.38;;;19.77;;
4486;SDS011;2256;48.740;9.106;2023-04-16T05:59:53;63.08;;;19.58;;
4486;SDS011;2256;48.740;9.106;2023-04-16T06:02:20;54.90;;;20.92;;
4486;SDS011;2256;48.740;9.106;2023-04-16T06:04:47;52.10;;;20.45;;
4486;SDS011;2256;48.740;9.106;2023-04-16T06:07:14;64.85;;;21.40;;
4486;SDS011;2256;48.740;9.106;2023-04-16T06:09:40;65.95;;;23.60;;
4486;SDS011;2256;48.740;9.106;2023-04-16T06:12:07;56.38;;;21.92;;
4486;SDS011;2256;48.740;9.106;2023-04-16T06:14:36;77.80;;;24.27;;
4486;SDS011;2256;48.740;9.106;2023-04-16T06:17:03;75.20;;;24.35;;
4486;SDS011;2256;48.740;9.106;2023-04-16T06:19:30;79.25;;;22.40;;
4486;SDS011;2256;48.740;9.106;2023-04-16T06:21:57;66.35;;;21.48;;
4486;SDS011;2256;48.740;9.106;2023-04-16T06:24:24;59.05;;;22.05;;
4486;SDS011;2256;48.740;9.106;2023-04-16T06:26:51;54.15;;;21.75;;
4486;SDS011;2256;48.740;9.106;2023-04-16T06:29:18;77.90;;;22.47;;
4486;SDS011;2256;48.740;9.106;2023-04-16T06:31:46;108.35;;;21.98;;
4486;SDS011;2256;48.740;9.106;2023-04-16T06:34:13;76.38;;;24.58;;
4486;SDS011;2256;48.740;9.106;2023-04-16T06:36:40;71.05;;;23.30;;
4486;SDS011;2256;48.740;9.106;2023-04-16T06:39:07;73.63;;;21.55;;
4486;SDS011;2256;48.740;9.106;2023-04-16T06:41:34;76.45;;;26.00;;
4486;SDS011;2256;48.740;9.106;2023-04-16T06:44:00;68.80;;;24.00;;
4486;SDS011;2256;48.740;9.106;2023-04-16T06:46:27;63.13;;;23.50;;
4486;SDS011;2256;48.740;9.106;2023-04-16T06:48:55;77.70;;;26.00;;
4486;SDS011;2256;48.740;9.106;2023-04-16T06:51:22;65.33;;;22.40;;
4486;SDS011;2256;48.740;9.106;2023-04-16T06:53:50;62.35;;;24.77;;
4486;SDS011;2256;48.740;9.106;2023-04-16T06:56:17;75.13;;;26.00;;
4486;SDS011;2256;48.740;9.106;2023-04-16T06:58:44;66.07;;;23.75;;
4486;SDS011;2256;48.740;9.106;2023-04-16T07:01:11;90.97;;;25.40;;
4486;SDS011;2256;48.740;9.106;2023-04-16T07:03:39;61.75;;;24.13;;
4486;SDS011;2256;48.740;9.106;2023-04-16T07:06:12;67.93;;;24.58;;
4486;SDS011;2256;48.740;9.106;2023-04-16T07:08:39;57.88;;;22.45;;
4486;SDS011;2256;48.740;9.106;2023-04-16T07:11:06;67.82;;;23.95;;
4486;SDS011;2256;48.740;9.106;2023-04-16T07:13:33;66.43;;;21.00;;
4486;SDS011;2256;48.740;9.106;2023-04-16T07:16:00;54.25;;;22.38;;
4486;SDS011;2256;48.740;9.106;2023-04-16T07:18:26;65.45;;;23.20;;
4486;SDS011;2256;48.740;9.106;2023-04-16T07:20:53;64.28;;;24.23;;
4486;SDS011;2256;48.740;9.106;2023-04-16T07:23:21;62.45;;;23.15;;
4486;SDS011;2256;48.740;9.106;2023-04-16T07:25:48;58.90;;;23.15;;
4486;SDS011;2256;48.740;9.106;2023-04-16T07:28:15;59.05;;;24.00;;
4486;SDS011;2256;48.740;9.106;2023-04-16T07:30:42;62.08;;;23.58;;
4486;SDS011;2256;48.740;9.106;2023-04-16T07:33:08;62.97;;;23.13;;
4486;SDS011;2256;48.740;9.106;2023-04-16T07:35:35;61.33;;;23.92;;
4486;SDS011;2256;48.740;9.106;2023-04-16T07:38:02;54.65;;;21.98;;
4486;SDS011;2256;48.740;9.106;2023-04-16T07:40:30;59.08;;;23.40;;
4486;SDS011;2256;48.740;9.106;2023-04-16T07:42:58;55.15;;;22.70;;
4486;SDS011;2256;48.740;9.106;2023-04-16T07:45:25;57.50;;;21.20;;
4486;SDS011;2256;48.740;9.106;2023-04-16T07:47:52;57.70;;;23.30;;
4486;SDS011;2256;48.740;9.106;2023-04-16T07:50:19;53.47;;;22.15;;
4486;SDS011;2256;48.740;9.106;2023-04-16T07:52:45;57.27;;;21.50;;
4486;SDS011;2256;48.740;9.106;2023-04-16T07:55:12;52.67;;;20.25;;
4486;SDS011;2256;48.740;9.106;2023-04-16T07:57:40;52.47;;;22.35;;
4486;SDS011;2256;48.740;9.106;2023-04-16T08:00:09;54.72;;;22.15;;
4486;SDS011;2256;48.740;9.106;2023-04-16T08:02:38;52.55;;;21.70;;
4486;SDS011;2256;48.740;9.106;2023-04-16T08:05:06;50.55;;;21.35;;
4486;SDS011;2256;48.740;9.106;2023-04-16T08:07:33;56.33;;;21.70;;
4486;SDS011;2256;48.740;9.106;2023-04-16T08:09:59;53.40;;;22.20;;
4486;SDS011;2256;48.740;9.106;2023-04-16T08:12:27;49.00;;;20.60;;
4486;SDS011;2256;48.740;9.106;2023-04-16T08:14:58;47.03;;;20.08;;
4486;SDS011;2256;48.740;9.106;2023-04-16T08:17:27;47.03;;;19.30;;
4486;SDS011;2256;48.740;9.106;2023-04-16T08:19:54;50.43;;;20.20;;
4486;SDS011;2256;48.740;9.106;2023-04-16T08:22:21;45.97;;;20.13;;
4486;SDS011;2256;48.740;9.106;2023-04-16T08:24:49;44.77;;;19.40;;
4486;SDS011;2256;48.740;9.106;2023-04-16T08:27:16;50.75;;;20.83;;
4486;SDS011;2256;48.740;9.106;2023-04-16T08:29:43;54.43;;;20.70;;
4486;SDS011;2256;48.740;9.106;2023-04-16T08:32:11;43.93;;;20.00;;
4486;SDS011;2256;48.740;9.106;2023-04-16T08:34:40;45.47;;;19.60;;
4486;SDS011;2256;48.740;9.106;2023-04-16T08:37:07;48.23;;;20.57;;
4486;SDS011;2256;48.740;9.106;2023-04-16T08:39:34;43.37;;;19.90;;
4486;SDS011;2256;48.740;9.106;2023-04-16T08:42:02;47.30;;;19.73;;
4486;SDS011;2256;48.740;9.106;2023-04-16T08:44:31;47.30;;;19.97;;
4486;SDS011;2256;48.740;9.106;2023-04-16T08:46:59;45.83;;;19.95;;
4486;SDS011;2256;48.740;9.106;2023-04-16T08:49:28;47.80;;;19.87;;
4486;SDS011;2256;48.740;9.106;2023-04-16T08:51:57;42.83;;;16.77;;
4486;SDS011;2256;48.740;9.106;2023-04-16T08:54:30;39.90;;;18.53;;
4486;SDS011;2256;48.740;9.106;2023-04-16T08:56:59;41.47;;;17.90;;
4486;SDS011;2256;48.740;9.106;2023-04-16T08:59:31;36.80;;;18.60;;
4486;SDS011;2256;48.740;9.106;2023-04-16T09:01:58;40.90;;;17.67;;
4486;SDS011;2256;48.740;9.106;2023-04-16T09:04:27;38.93;;;17.90;;
4486;SDS011;2256;48.740;9.106;2023-04-16T09:06:54;44.47;;;16.33;;
4486;SDS011;2256;48.740;9.106;2023-04-16T09:09:24;37.47;;;17.20;;
4486;SDS011;2256;48.740;9.106;2023-04-16T09:11:51;43.77;;;15.77;;
4486;SDS011;2256;48.740;9.106;2023-04-16T09:14:19;38.43;;;16.13;;
4486;SDS011;2256;48.740;9.106;2023-04-16T09:16:46;32.70;;;14.80;;
4486;SDS011;2256;48.740;9.106;2023-04-16T09:19:13;30.50;;;14.53;;
4486;SDS011;2256;48.740;9.106;2023-04-16T09:21:41;30.23;;;15.07;;
4486;SDS011;2256;48.740;9.106;2023-04-16T09:24:11;41.13;;;17.37;;
4486;SDS011;2256;48.740;9.106;2023-04-16T09:26:39;25.67;;;13.43;;
4486;SDS011;2256;48.740;9.106;2023-04-16T09:29:07;36.80;;;15.13;;
4486;SDS011;2256;48.740;9.106;2023-04-16T09:31:34;31.63;;;14.90;;
4486;SDS011;2256;48.740;9.106;2023-04-16T09:34:02;30.20;;;15.60;;
4486;SDS011;2256;48.740;9.106;2023-04-16T09:36:30;39.77;;;18.70;;
4486;SDS011;2256;48.740;9.106;2023-04-16T09:38:59;34.53;;;16.80;;
4486;SDS011;2256;48.740;9.106;2023-04-16T09:41:28;41.00;;;16.30;;
4486;SDS011;2256;48.740;9.106;2023-04-16T09:43:55;35.53;;;16.97;;
4486;SDS011;2256;48.740;9.106;2023-04-16T09:46:28;35.57;;;15.77;;
4486;SDS011;2256;48.740;9.106;2023-04-16T09:48:55;38.10;;;16.67;;
4486;SDS011;2256;48.740;9.106;2023-04-16T09:51:22;33.07;;;16.10;;
4486;SDS011;2256;48.740;9.106;2023-04-16T09:53:50;38.50;;;16.93;;
4486;SDS011;2256;48.740;9.106;2023-04-16T09:56:19;34.40;;;15.30;;
4486;SDS011;2256;48.740;9.106;2023-04-16T09:58:49;33.63;;;14.93;;
4486;SDS011;2256;48.740;9.106;2023-04-16T10:01:22;41.93;;;17.10;;
4486;SDS011;2256;48.740;9.106;2023-04-16T10:03:53;34.23;;;15.40;;
4486;SDS011;2256;48.740;9.106;2023-04-16T10:06:21;33.17;;;14.70;;
4486;SDS011;2256;48.740;9.106;2023-04-16T10:08:50;32.93;;;14.97;;
4486;SDS011;2256;48.740;9.106;2023-04-16T10:11:22;34.27;;;15.63;;
4486;SDS011;2256;48.740;9.106;2023-04-16T10:13:50;48.27;;;21.57;;
4486;SDS011;2256;48.740;9.106;2023-04-16T10:16:17;45.60;;;19.67;;
4486;SDS011;2256;48.740;9.106;2023-04-16T10:18:44;36.80;;;18.03;;
4486;SDS011;2256;48.740;9.106;2023-04-16T10:21:11;40.33;;;17.57;;
4486;SDS011;2256;48.740;9.106;2023-04-16T10:23:39;43.70;;;17.20;;
4486;SDS011;2256;48.740;9.106;2023-04-16T10:26:07;35.37;;;16.53;;
4486;SDS011;2256;48.740;9.106;2023-04-16T10:28:35;36.93;;;16.33;;
4486;SDS011;2256;48.740;9.106;2023-04-16T10:31:02;42.07;;;18.47;;
4486;SDS011;2256;48.740;9.106;2023-04-16T10:33:31;36.57;;;18.70;;
4486;SDS011;2256;48.740;9.106;2023-04-16T10:36:07;41.77;;;17.43;;
4486;SDS011;2256;48.740;9.106;2023-04-16T10:38:37;38.03;;;16.60;;
4486;SDS011;2256;48.740;9.106;2023-04-16T10:41:05;40.17;;;16.70;;
4486;SDS011;2256;48.740;9.106;2023-04-16T10:43:38;30.70;;;15.73;;
4486;SDS011;2256;48.740;9.106;2023-04-16T10:46:21;39.00;;;17.40;;
4486;SDS011;2256;48.740;9.106;2023-04-16T10:48:52;32.23;;;14.30;;
4486;SDS011;2256;48.740;9.106;2023-04-16T10:51:23;37.90;;;15.70;;
4486;SDS011;2256;48.740;9.106;2023-04-16T10:53:53;40.90;;;15.93;;
4486;SDS011;2256;48.740;9.106;2023-04-16T10:56:24;32.33;;;14.63;;
4486;SDS011;2256;48.740;9.106;2023-04-16T10:58:53;32.20;;;14.17;;
4486;SDS011;2256;48.740;9.106;2023-04-16T11:01:28;39.50;;;14.90;;
4486;SDS011;2256;48.740;9.106;2023-04-16T11:03:57;30.93;;;15.13;;
4486;SDS011;2256;48.740;9.106;2023-04-16T11:06:26;42.63;;;21.20;;
4486;SDS011;2256;48.740;9.106;2023-04-16T11:08:53;34.77;;;15.50;;
4486;SDS011;2256;48.740;9.106;2023-04-16T11:11:20;32.53;;;13.70;;
4486;SDS011;2256;48.740;9.106;2023-04-16T11:13:48;26.23;;;12.40;;
4486;SDS011;2256;48.740;9.106;2023-04-16T11:16:16;25.60;;;12.53;;
4486;SDS011;2256;48.740;9.106;2023-04-16T11:18:44;28.80;;;12.70;;
4486;SDS011;2256;48.740;9.106;2023-04-16T11:21:11;31.93;;;12.50;;
4486;SDS011;2256;48.740;9.106;2023-04-16T11:23:44;24.73;;;11.70;;
4486;SDS011;2256;48.740;9.106;2023-04-16T11:26:24;28.37;;;12.47;;
4486;SDS011;2256;48.740;9.106;2023-04-16T11:28:54;20.20;;;10.63;;
4486;SDS011;2256;48.740;9.106;2023-04-16T11:31:24;23.77;;;11.63;;
4486;SDS011;2256;48.740;9.106;2023-04-16T11:33:51;17.87;;;8.47;;
4486;SDS011;2256;48.740;9.106;2023-04-16T11:36:20;22.73;;;9.77;;
4486;SDS011;2256;48.740;9.106;2023-04-16T11:38:47;18.20;;;8.00;;
4486;SDS011;2256;48.740;9.106;2023-04-16T11:41:18;20.33;;;7.00;;
4486;SDS011;2256;48.740;9.106;2023-04-16T11:43:46;15.27;;;7.40;;
4486;SDS011;2256;48.740;9.106;2023-04-16T11:46:13;13.20;;;6.10;;
4486;SDS011;2256;48.740;9.106;2023-04-16T11:48:51;14.10;;;7.10;;
4486;SDS011;2256;48.740;9.106;2023-04-16T11:51:19;11.27;;;6.90;;
4486;SDS011;2256;48.740;9.106;2023-04-16T11:53:47;14.70;;;6.70;;
4486;SDS011;2256;48.740;9.106;2023-04-16T11:56:15;10.93;;;6.47;;
4486;SDS011;2256;48.740;9.106;2023-04-16T11:59:07;11.70;;;6.13;;
4486;SDS011;2256;48.740;9.106;2023-04-16T12:01:35;15.20;;;6.70;;
4486;SDS011;2256;48.740;9.106;2023-04-16T12:04:07;11.07;;;5.10;;
4486;SDS011;2256;48.740;9.106;2023-04-16T12:06:34;15.03;;;7.97;;
4486;SDS011;2256;48.740;9.106;2023-04-16T12:11:50;7.03;;;4.80;;
4486;SDS011;2256;48.740;9.106;2023-04-16T12:14:19;11.80;;;6.37;;
4486;SDS011;2256;48.740;9.106;2023-04-16T12:16:47;14.10;;;9.43;;
4486;SDS011;2256;48.740;9.106;2023-04-16T12:19:16;10.00;;;5.97;;
4486;SDS011;2256;48.740;9.106;2023-04-16T12:21:45;5.70;;;4.13;;
4486;SDS011;2256;48.740;9.106;2023-04-16T12:24:15;6.93;;;4.20;;
4486;SDS011;2256;48.740;9.106;2023-04-16T12:26:45;7.97;;;4.40;;
4486;SDS011;2256;48.740;9.106;2023-04-16T12:29:17;8.93;;;4.70;;
4486;SDS011;2256;48.740;9.106;2023-04-16T12:31:47;8.40;;;4.47;;
4486;SDS011;2256;48.740;9.106;2023-04-16T12:34:17;8.60;;;4.30;;
4486;SDS011;2256;48.740;9.106;2023-04-16T12:36:45;6.47;;;4.53;;
4486;SDS011;2256;48.740;9.106;2023-04-16T12:39:14;10.17;;;4.50;;
4486;SDS011;2256;48.740;9.106;2023-04-16T12:41:42;5.53;;;3.90;;
4486;SDS011;2256;48.740;9.106;2023-04-16T12:44:10;5.90;;;4.30;;
4486;SDS011;2256;48.740;9.106;2023-04-16T12:46:41;10.00;;;5.77;;
4486;SDS011;2256;48.740;9.106;2023-04-16T12:49:08;6.67;;;5.00;;
4486;SDS011;2256;48.740;9.106;2023-04-16T12:51:41;10.13;;;4.80;;
4486;SDS011;2256;48.740;9.106;2023-04-16T12:54:08;8.30;;;4.37;;
4486;SDS011;2256;48.740;9.106;2023-04-16T12:56:35;7.30;;;4.70;;
4486;SDS011;2256;48.740;9.106;2023-04-16T12:59:02;7.70;;;4.37;;
4486;SDS011;2256;48.740;9.106;2023-04-16T13:01:31;6.17;;;4.50;;
4486;SDS011;2256;48.740;9.106;2023-04-16T13:04:00;7.37;;;4.50;;
4486;SDS011;2256;48.740;9.106;2023-04-16T13:06:27;7.07;;;4.50;;
4486;SDS011;2256;48.740;9.106;2023-04-16T13:08:55;7.90;;;4.60;;
4486;SDS011;2256;48.740;9.106;2023-04-16T13:11:21;7.23;;;4.60;;
4486;SDS011;2256;48.740;9.106;2023-04-16T13:13:49;9.33;;;5.23;;
4486;SDS011;2256;48.740;9.106;2023-04-16T13:16:17;9.50;;;5.20;;
4486;SDS011;2256;48.740;9.106;2023-04-16T13:18:44;10.50;;;6.27;;
4486;SDS011;2256;48.740;9.106;2023-04-16T13:21:11;20.00;;;8.70;;
4486;SDS011;2256;48.740;9.106;2023-04-16T13:23:38;9.40;;;5.50;;
4486;SDS011;2256;48.740;9.106;2023-04-16T13:26:06;9.30;;;5.50;;
4486;SDS011;2256;48.740;9.106;2023-04-16T13:28:33;32.03;;;13.73;;
4486;SDS011;2256;48.740;9.106;2023-04-16T13:31:00;19.87;;;9.40;;
4486;SDS011;2256;48.740;9.106;2023-04-16T13:33:27;15.77;;;6.67;;
4486;SDS011;2256;48.740;9.106;2023-04-16T13:35:55;10.50;;;5.50;;
4486;SDS011;2256;48.740;9.106;2023-04-16T13:38:22;7.77;;;4.83;;
4486;SDS011;2256;48.740;9.106;2023-04-16T13:40:49;11.60;;;7.27;;
4486;SDS011;2256;48.740;9.106;2023-04-16T13:43:18;8.23;;;5.23;;
4486;SDS011;2256;48.740;9.106;2023-04-16T13:45:46;11.03;;;5.93;;
4486;SDS011;2256;48.740;9.106;2023-04-16T13:48:13;9.87;;;6.23;;
4486;SDS011;2256;48.740;9.106;2023-04-16T13:50:40;10.73;;;6.87;;
4486;SDS011;2256;48.740;9.106;2023-04-16T13:53:06;10.20;;;6.23;;
4486;SDS011;2256;48.740;9.106;2023-04-16T13:55:33;11.37;;;5.97;;
4486;SDS011;2256;48.740;9.106;2023-04-16T13:58:01;16.23;;;7.03;;
4486;SDS011;2256;48.740;9.106;2023-04-16T14:00:32;15.50;;;8.10;;
4486;SDS011;2256;48.740;9.106;2023-04-16T14:03:01;13.93;;;7.33;;
4486;SDS011;2256;48.740;9.106;2023-04-16T14:05:29;12.20;;;7.50;;
4486;SDS011;2256;48.740;9.106;2023-04-16T14:07:57;11.90;;;7.10;;
4486;SDS011;2256;48.740;9.106;2023-04-16T14:10:23;16.80;;;8.20;;
4486;SDS011;2256;48.740;9.106;2023-04-16T14:12:52;16.97;;;8.63;;
4486;SDS011;2256;48.740;9.106;2023-04-16T14:15:19;25.63;;;10.93;;
4486;SDS011;2256;48.740;9.106;2023-04-16T14:17:48;13.63;;;7.50;;
4486;SDS011;2256;48.740;9.106;2023-04-16T14:20:16;16.13;;;8.23;;
4486;SDS011;2256;48.740;9.106;2023-04-16T14:22:44;14.30;;;7.53;;
4486;SDS011;2256;48.740;9.106;2023-04-16T14:25:12;15.30;;;7.83;;
4486;SDS011;2256;48.740;9.106;2023-04-16T14:27:39;16.97;;;8.77;;
4486;SDS011;2256;48.740;9.106;2023-04-16T14:30:06;21.50;;;9.70;;
4486;SDS011;2256;48.740;9.106;2023-04-16T14:32:34;21.87;;;11.90;;
4486;SDS011;2256;48.740;9.106;2023-04-16T14:35:04;20.33;;;9.87;;
4486;SDS011;2256;48.740;9.106;2023-04-16T14:37:33;18.33;;;9.77;;
4486;SDS011;2256;48.740;9.106;2023-04-16T14:40:02;34.20;;;15.70;;
4486;SDS011;2256;48.740;9.106;2023-04-16T14:42:33;18.63;;;9.00;;
4486;SDS011;2256;48.740;9.106;2023-04-16T14:45:00;27.57;;;11.00;;
4486;SDS011;2256;48.740;9.106;2023-04-16T14:47:34;38.50;;;17.73;;
4486;SDS011;2256;48.740;9.106;2023-04-16T14:52:35;25.60;;;11.67;;
4486;SDS011;2256;48.740;9.106;2023-04-16T14:55:03;26.17;;;14.20;;
4486;SDS011;2256;48.740;9.106;2023-04-16T14:57:32;28.60;;;15.17;;
4486;SDS011;2256;48.740;9.106;2023-04-16T15:00:00;26.37;;;13.43;;
4486;SDS011;2256;48.740;9.106;2023-04-16T15:02:32;24.83;;;12.77;;